Portada
METAR-TAF:

METAR-TAF

Aeroports :

Tak, Tailàndia

latitud: 16-53N, longitud: 099-09E, altitud: 121 m

METAR: manca

Hora: 05:30 (22:30 UTC)

Pronòstic

L'informe es va fer fa 5 hores i 30 minuts, a les 17:00 UTC
Pronòstic vàlid del 21 a les 18 UTC al 22 a les 18 UTC
Vent 5 kt del Oest/Sud-Oest
Visibilitat 10 km o més
Cel ennuvolat a una alçada de 2500 ft
Temporalment
l' 22 a les 08 UTC al 22 a les 13 UTC
Vent 15 kt amb direcció variable amb ràfegues de 30 kt
Visibilitat: 4000 m
Escasses núvols a una alçada de 1800 ft, Cumulonimbus.
Cel ennuvolat a una alçada de 3500 ft
tempesta, pluja

TAF: VTPT 211700Z 2118/2218 24005KT 9999 BKN025 TEMPO 2208/2213 VRB15G30KT 4000 TSRA FEW018CB BKN035

Observacions i pronòstics meteorològics de més de 4000 aeroports (METAR i TAF).

Les estacions disponibles són els punts grocs i vermells al mapa.

Posi el ratolí al punt desitjat per veure el nom de l'estació.

Feu clic per veure les observacions i els pronòstics meteorològics.

Per canviar el mapa: feu clic els botons verds amb una creu de color negre per apropar; al botó verd amb un guió per allunyar la imatge; o en les fletxes verdes per a mapes adjacents.


METAR-TAF: